sensor_id;sensor_type;location;lat;lon;timestamp;pressure;altitude;pressure_sealevel;temperature;humidity
46534;BME280;32260;52.008;4.752;2023-02-27T00:01:45;103069.81;;;4.36;60.62
46534;BME280;32260;52.008;4.752;2023-02-27T00:04:11;103068.13;;;4.38;60.13
46534;BME280;32260;52.008;4.752;2023-02-27T00:06:37;103070.84;;;4.40;60.68
46534;BME280;32260;52.008;4.752;2023-02-27T00:09:03;103074.41;;;4.42;60.60
46534;BME280;32260;52.008;4.752;2023-02-27T00:11:30;103078.00;;;4.44;60.47
46534;BME280;32260;52.008;4.752;2023-02-27T00:13:56;103085.91;;;4.46;60.74
46534;BME280;32260;52.008;4.752;2023-02-27T00:16:22;103086.94;;;4.49;60.65
46534;BME280;32260;52.008;4.752;2023-02-27T00:18:48;103089.63;;;4.51;60.93
46534;BME280;32260;52.008;4.752;2023-02-27T00:21:14;103090.59;;;4.53;60.32
46534;BME280;32260;52.008;4.752;2023-02-27T00:23:41;103080.16;;;4.54;60.56
46534;BME280;32260;52.008;4.752;2023-02-27T00:26:07;103087.19;;;4.56;60.38
46534;BME280;32260;52.008;4.752;2023-02-27T00:28:33;103086.38;;;4.57;60.16
46534;BME280;32260;52.008;4.752;2023-02-27T00:30:59;103078.50;;;4.57;60.78
46534;BME280;32260;52.008;4.752;2023-02-27T00:33:25;103077.72;;;4.59;60.32
46534;BME280;32260;52.008;4.752;2023-02-27T00:36:00;103063.97;;;4.65;60.08
46534;BME280;32260;52.008;4.752;2023-02-27T00:38:27;103074.28;;;4.60;60.42
46534;BME280;32260;52.008;4.752;2023-02-27T00:40:53;103075.16;;;4.61;60.54
46534;BME280;32260;52.008;4.752;2023-02-27T00:43:20;103056.78;;;4.61;60.58
46534;BME280;32260;52.008;4.752;2023-02-27T00:45:47;103062.84;;;4.60;60.55
46534;BME280;32260;52.008;4.752;2023-02-27T00:48:14;103063.63;;;4.57;60.71
46534;BME280;32260;52.008;4.752;2023-02-27T00:50:40;103065.22;;;4.53;60.34
46534;BME280;32260;52.008;4.752;2023-02-27T00:53:09;103065.94;;;4.49;60.33
46534;BME280;32260;52.008;4.752;2023-02-27T00:55:35;103062.34;;;4.47;60.62
46534;BME280;32260;52.008;4.752;2023-02-27T00:58:01;103072.75;;;4.44;59.94
46534;BME280;32260;52.008;4.752;2023-02-27T01:00:27;103069.16;;;4.42;60.25
46534;BME280;32260;52.008;4.752;2023-02-27T01:02:53;103061.28;;;4.42;60.26
46534;BME280;32260;52.008;4.752;2023-02-27T01:05:20;103065.59;;;4.40;60.05
46534;BME280;32260;52.008;4.752;2023-02-27T01:07:46;103069.03;;;4.39;59.85
46534;BME280;32260;52.008;4.752;2023-02-27T01:10:12;103062.00;;;4.38;60.43
46534;BME280;32260;52.008;4.752;2023-02-27T01:12:39;103063.63;;;4.36;60.29
46534;BME280;32260;52.008;4.752;2023-02-27T01:15:06;103061.72;;;4.32;60.21
46534;BME280;32260;52.008;4.752;2023-02-27T01:17:33;103069.34;;;4.26;59.86
46534;BME280;32260;52.008;4.752;2023-02-27T01:19:59;103066.47;;;4.19;59.93
46534;BME280;32260;52.008;4.752;2023-02-27T01:22:25;103064.41;;;4.12;60.53
46534;BME280;32260;52.008;4.752;2023-02-27T01:24:51;103066.75;;;4.06;60.19
46534;BME280;32260;52.008;4.752;2023-02-27T01:27:17;103060.31;;;3.98;60.24
46534;BME280;32260;52.008;4.752;2023-02-27T01:29:43;103058.09;;;3.87;60.44
46534;BME280;32260;52.008;4.752;2023-02-27T01:32:10;103064.75;;;3.79;59.94
46534;BME280;32260;52.008;4.752;2023-02-27T01:34:39;103052.00;;;3.67;60.38
46534;BME280;32260;52.008;4.752;2023-02-27T01:37:05;103059.41;;;3.56;60.63
46534;BME280;32260;52.008;4.752;2023-02-27T01:39:31;103058.91;;;3.46;60.18
46534;BME280;32260;52.008;4.752;2023-02-27T01:41:58;103059.38;;;3.37;60.73
46534;BME280;32260;52.008;4.752;2023-02-27T01:44:26;103054.69;;;3.30;60.87
46534;BME280;32260;52.008;4.752;2023-02-27T01:46:54;103057.72;;;3.19;61.05
46534;BME280;32260;52.008;4.752;2023-02-27T01:49:25;103061.91;;;3.16;61.30
46534;BME280;32260;52.008;4.752;2023-02-27T01:51:56;103057.28;;;3.10;61.19
46534;BME280;32260;52.008;4.752;2023-02-27T01:54:27;103052.72;;;3.06;62.06
46534;BME280;32260;52.008;4.752;2023-02-27T01:56:54;103053.56;;;3.05;62.13
46534;BME280;32260;52.008;4.752;2023-02-27T01:59:21;103046.63;;;3.05;62.54
46534;BME280;32260;52.008;4.752;2023-02-27T02:01:48;103052.72;;;3.06;61.80
46534;BME280;32260;52.008;4.752;2023-02-27T02:04:34;103047.78;;;3.12;62.27
46534;BME280;32260;52.008;4.752;2023-02-27T02:07:06;103048.38;;;3.06;62.17
46534;BME280;32260;52.008;4.752;2023-02-27T02:09:45;103048.31;;;3.05;62.29
46534;BME280;32260;52.008;4.752;2023-02-27T02:12:15;103050.81;;;3.02;61.79
46534;BME280;32260;52.008;4.752;2023-02-27T02:14:41;103052.31;;;2.97;61.94
46534;BME280;32260;52.008;4.752;2023-02-27T02:18:02;103049.69;;;2.97;62.25
46534;BME280;32260;52.008;4.752;2023-02-27T02:25:09;103055.16;;;2.83;61.65
46534;BME280;32260;52.008;4.752;2023-02-27T02:29:29;103062.28;;;2.68;62.26
46534;BME280;32260;52.008;4.752;2023-02-27T02:35:06;103060.03;;;2.57;62.03
46534;BME280;32260;52.008;4.752;2023-02-27T02:43:12;103062.50;;;2.36;62.49
46534;BME280;32260;52.008;4.752;2023-02-27T02:45:49;103060.63;;;2.34;62.11
46534;BME280;32260;52.008;4.752;2023-02-27T02:48:30;103062.25;;;2.32;62.43
46534;BME280;32260;52.008;4.752;2023-02-27T02:51:22;103061.13;;;2.26;63.52
46534;BME280;32260;52.008;4.752;2023-02-27T02:59:31;103066.09;;;2.38;63.07
46534;BME280;32260;52.008;4.752;2023-02-27T03:02:06;103062.56;;;2.38;62.98
46534;BME280;32260;52.008;4.752;2023-02-27T03:04:55;103066.53;;;2.48;63.06
46534;BME280;32260;52.008;4.752;2023-02-27T03:07:35;103064.75;;;2.47;62.68
46534;BME280;32260;52.008;4.752;2023-02-27T03:10:25;103069.22;;;2.49;63.10
46534;BME280;32260;52.008;4.752;2023-02-27T03:12:59;103069.91;;;2.45;62.69
46534;BME280;32260;52.008;4.752;2023-02-27T03:15:34;103070.72;;;2.44;63.05
46534;BME280;32260;52.008;4.752;2023-02-27T03:18:14;103067.28;;;2.45;63.20
46534;BME280;32260;52.008;4.752;2023-02-27T03:20:50;103063.53;;;2.40;62.76
46534;BME280;32260;52.008;4.752;2023-02-27T03:23:33;103066.97;;;2.39;62.66
46534;BME280;32260;52.008;4.752;2023-02-27T03:26:02;103071.91;;;2.33;62.72
46534;BME280;32260;52.008;4.752;2023-02-27T03:28:31;103069.97;;;2.29;62.75
46534;BME280;32260;52.008;4.752;2023-02-27T03:33:58;103059.34;;;2.25;62.81
46534;BME280;32260;52.008;4.752;2023-02-27T03:39:27;103056.13;;;2.13;63.41
46534;BME280;32260;52.008;4.752;2023-02-27T03:47:21;103059.75;;;1.99;63.78
46534;BME280;32260;52.008;4.752;2023-02-27T03:49:48;103051.72;;;1.96;63.72
46534;BME280;32260;52.008;4.752;2023-02-27T03:52:19;103059.56;;;1.96;64.15
46534;BME280;32260;52.008;4.752;2023-02-27T03:54:57;103058.88;;;1.98;64.18
46534;BME280;32260;52.008;4.752;2023-02-27T03:57:25;103063.69;;;1.90;64.02
46534;BME280;32260;52.008;4.752;2023-02-27T03:59:52;103067.84;;;1.87;64.02
46534;BME280;32260;52.008;4.752;2023-02-27T04:02:18;103069.41;;;1.83;64.06
46534;BME280;32260;52.008;4.752;2023-02-27T04:04:45;103066.63;;;1.80;63.59
46534;BME280;32260;52.008;4.752;2023-02-27T04:07:21;103077.09;;;1.80;63.29
46534;BME280;32260;52.008;4.752;2023-02-27T04:10:09;103077.91;;;1.79;63.61
46534;BME280;32260;52.008;4.752;2023-02-27T04:12:51;103081.34;;;1.78;63.46
46534;BME280;32260;52.008;4.752;2023-02-27T04:15:42;103073.41;;;1.76;63.77
46534;BME280;32260;52.008;4.752;2023-02-27T04:20:53;103074.00;;;1.71;63.63
46534;BME280;32260;52.008;4.752;2023-02-27T04:23:35;103070.41;;;1.69;64.32
46534;BME280;32260;52.008;4.752;2023-02-27T04:26:27;103078.41;;;1.72;63.80
46534;BME280;32260;52.008;4.752;2023-02-27T04:32:03;103083.22;;;1.64;64.07
46534;BME280;32260;52.008;4.752;2023-02-27T04:37:19;103092.63;;;1.60;63.97
46534;BME280;32260;52.008;4.752;2023-02-27T04:40:07;103093.28;;;1.56;64.62
46534;BME280;32260;52.008;4.752;2023-02-27T04:42:39;103094.00;;;1.54;64.42
46534;BME280;32260;52.008;4.752;2023-02-27T04:45:10;103095.72;;;1.53;65.24
46534;BME280;32260;52.008;4.752;2023-02-27T04:47:45;103099.50;;;1.58;64.66
46534;BME280;32260;52.008;4.752;2023-02-27T04:50:17;103102.19;;;1.60;64.48
46534;BME280;32260;52.008;4.752;2023-02-27T04:52:53;103100.47;;;1.60;64.96
46534;BME280;32260;52.008;4.752;2023-02-27T04:55:27;103106.50;;;1.59;64.64
46534;BME280;32260;52.008;4.752;2023-02-27T04:58:03;103103.81;;;1.58;64.85
46534;BME280;32260;52.008;4.752;2023-02-27T05:00:33;103115.06;;;1.57;65.01
46534;BME280;32260;52.008;4.752;2023-02-27T05:03:12;103110.91;;;1.60;64.51
46534;BME280;32260;52.008;4.752;2023-02-27T05:05:42;103115.91;;;1.56;65.35
46534;BME280;32260;52.008;4.752;2023-02-27T05:08:15;103119.41;;;1.56;65.26
46534;BME280;32260;52.008;4.752;2023-02-27T05:11:06;103115.25;;;1.60;64.93
46534;BME280;32260;52.008;4.752;2023-02-27T05:13:52;103110.16;;;1.63;65.40
46534;BME280;32260;52.008;4.752;2023-02-27T05:16:26;103115.41;;;1.63;65.31
46534;BME280;32260;52.008;4.752;2023-02-27T05:18:58;103103.25;;;1.64;65.36
46534;BME280;32260;52.008;4.752;2023-02-27T05:21:33;103116.53;;;1.68;65.48
46534;BME280;32260;52.008;4.752;2023-02-27T05:24:09;103117.59;;;1.72;65.41
46534;BME280;32260;52.008;4.752;2023-02-27T05:27:02;103117.13;;;1.79;65.19
46534;BME280;32260;52.008;4.752;2023-02-27T05:29:51;103121.28;;;1.75;65.31
46534;BME280;32260;52.008;4.752;2023-02-27T05:35:02;103121.53;;;1.80;65.26
46534;BME280;32260;52.008;4.752;2023-02-27T05:37:33;103116.31;;;1.80;65.36
46534;BME280;32260;52.008;4.752;2023-02-27T05:40:03;103119.63;;;1.94;64.85
46534;BME280;32260;52.008;4.752;2023-02-27T05:42:40;103110.34;;;1.83;65.06
46534;BME280;32260;52.008;4.752;2023-02-27T05:45:16;103109.44;;;1.82;65.05
46534;BME280;32260;52.008;4.752;2023-02-27T05:47:50;103109.34;;;1.81;64.89
46534;BME280;32260;52.008;4.752;2023-02-27T05:50:22;103118.03;;;1.80;65.30
46534;BME280;32260;52.008;4.752;2023-02-27T05:52:51;103121.38;;;1.77;64.69
46534;BME280;32260;52.008;4.752;2023-02-27T05:55:26;103125.69;;;1.76;64.85
46534;BME280;32260;52.008;4.752;2023-02-27T05:58:16;103129.44;;;1.82;64.85
46534;BME280;32260;52.008;4.752;2023-02-27T06:00:50;103128.38;;;1.78;65.20
46534;BME280;32260;52.008;4.752;2023-02-27T06:03:18;103128.22;;;1.75;65.30
46534;BME280;32260;52.008;4.752;2023-02-27T06:05:45;103129.22;;;1.77;65.10
46534;BME280;32260;52.008;4.752;2023-02-27T06:08:12;103129.31;;;1.78;65.85
46534;BME280;32260;52.008;4.752;2023-02-27T06:10:38;103133.06;;;1.84;65.32
46534;BME280;32260;52.008;4.752;2023-02-27T06:13:04;103136.72;;;1.87;65.71
46534;BME280;32260;52.008;4.752;2023-02-27T06:15:30;103137.69;;;1.89;65.55
46534;BME280;32260;52.008;4.752;2023-02-27T06:17:56;103144.72;;;1.90;65.74
46534;BME280;32260;52.008;4.752;2023-02-27T06:20:23;103148.47;;;1.96;65.55
46534;BME280;32260;52.008;4.752;2023-02-27T06:22:49;103145.03;;;1.97;65.46
46534;BME280;32260;52.008;4.752;2023-02-27T06:25:15;103146.03;;;1.99;65.30
46534;BME280;32260;52.008;4.752;2023-02-27T06:27:41;103150.53;;;2.01;65.39
46534;BME280;32260;52.008;4.752;2023-02-27T06:30:08;103161.97;;;2.03;65.33
46534;BME280;32260;52.008;4.752;2023-02-27T06:32:34;103157.47;;;2.01;65.91
46534;BME280;32260;52.008;4.752;2023-02-27T06:35:00;103159.25;;;2.02;65.63
46534;BME280;32260;52.008;4.752;2023-02-27T06:37:27;103173.19;;;2.01;66.06
46534;BME280;32260;52.008;4.752;2023-02-27T06:39:53;103171.53;;;2.03;65.56
46534;BME280;32260;52.008;4.752;2023-02-27T06:42:19;103178.56;;;2.04;65.68
46534;BME280;32260;52.008;4.752;2023-02-27T06:44:45;103178.72;;;2.07;66.08
46534;BME280;32260;52.008;4.752;2023-02-27T06:47:11;103182.47;;;2.12;66.00
46534;BME280;32260;52.008;4.752;2023-02-27T06:49:37;103187.94;;;2.17;65.75
46534;BME280;32260;52.008;4.752;2023-02-27T06:52:04;103188.19;;;2.21;65.74
46534;BME280;32260;52.008;4.752;2023-02-27T06:54:30;103181.31;;;2.23;65.90
46534;BME280;32260;52.008;4.752;2023-02-27T06:56:56;103186.56;;;2.23;65.51
46534;BME280;32260;52.008;4.752;2023-02-27T06:59:22;103183.94;;;2.23;65.54
46534;BME280;32260;52.008;4.752;2023-02-27T07:01:48;103188.19;;;2.21;65.31
46534;BME280;32260;52.008;4.752;2023-02-27T07:04:15;103192.34;;;2.18;65.58
46534;BME280;32260;52.008;4.752;2023-02-27T07:06:41;103194.88;;;2.16;65.65
46534;BME280;32260;52.008;4.752;2023-02-27T07:09:07;103196.50;;;2.14;65.20
46534;BME280;32260;52.008;4.752;2023-02-27T07:11:34;103194.63;;;2.12;65.33
46534;BME280;32260;52.008;4.752;2023-02-27T07:14:00;103198.97;;;2.11;65.08
46534;BME280;32260;52.008;4.752;2023-02-27T07:16:26;103210.25;;;2.10;64.85
46534;BME280;32260;52.008;4.752;2023-02-27T07:18:52;103213.69;;;2.09;65.27
46534;BME280;32260;52.008;4.752;2023-02-27T07:21:18;103212.81;;;2.08;65.13
46534;BME280;32260;52.008;4.752;2023-02-27T07:23:44;103218.91;;;2.09;65.33
46534;BME280;32260;52.008;4.752;2023-02-27T07:26:10;103213.69;;;2.09;65.36
46534;BME280;32260;52.008;4.752;2023-02-27T07:28:36;103214.59;;;2.09;65.32
46534;BME280;32260;52.008;4.752;2023-02-27T07:31:02;103215.50;;;2.10;65.73
46534;BME280;32260;52.008;4.752;2023-02-27T07:33:28;103224.31;;;2.12;65.50
46534;BME280;32260;52.008;4.752;2023-02-27T07:35:56;103219.09;;;2.12;65.83
46534;BME280;32260;52.008;4.752;2023-02-27T07:38:22;103220.06;;;2.14;65.88
46534;BME280;32260;52.008;4.752;2023-02-27T07:40:49;103218.50;;;2.18;65.85
46534;BME280;32260;52.008;4.752;2023-02-27T07:43:15;103219.50;;;2.20;65.97
46534;BME280;32260;52.008;4.752;2023-02-27T07:45:41;103214.50;;;2.24;66.42
46534;BME280;32260;52.008;4.752;2023-02-27T07:48:07;103218.25;;;2.30;66.07
46534;BME280;32260;52.008;4.752;2023-02-27T07:50:33;103217.44;;;2.31;66.03
46534;BME280;32260;52.008;4.752;2023-02-27T07:52:59;103217.59;;;2.34;66.56
46534;BME280;32260;52.008;4.752;2023-02-27T07:55:25;103215.16;;;2.37;66.40
46534;BME280;32260;52.008;4.752;2023-02-27T07:57:51;103209.31;;;2.42;66.54
46534;BME280;32260;52.008;4.752;2023-02-27T08:00:18;103214.81;;;2.47;66.78
46534;BME280;32260;52.008;4.752;2023-02-27T08:02:44;103214.22;;;2.53;66.01
46534;BME280;32260;52.008;4.752;2023-02-27T08:05:10;103207.59;;;2.59;66.38
46534;BME280;32260;52.008;4.752;2023-02-27T08:07:36;103214.94;;;2.67;66.66
46534;BME280;32260;52.008;4.752;2023-02-27T08:10:04;103209.28;;;2.75;66.12
46534;BME280;32260;52.008;4.752;2023-02-27T08:12:30;103212.09;;;2.80;66.04
46534;BME280;32260;52.008;4.752;2023-02-27T08:14:56;103214.22;;;2.87;65.93
46534;BME280;32260;52.008;4.752;2023-02-27T08:17:22;103215.44;;;2.94;65.78
46534;BME280;32260;52.008;4.752;2023-02-27T08:19:48;103226.28;;;3.02;65.87
46534;BME280;32260;52.008;4.752;2023-02-27T08:22:15;103227.41;;;3.07;65.62
46534;BME280;32260;52.008;4.752;2023-02-27T08:24:41;103224.28;;;3.14;65.77
46534;BME280;32260;52.008;4.752;2023-02-27T08:27:07;103223.72;;;3.21;65.87
46534;BME280;32260;52.008;4.752;2023-02-27T08:29:33;103226.63;;;3.28;65.71
46534;BME280;32260;52.008;4.752;2023-02-27T08:32:00;103237.41;;;3.34;65.38
46534;BME280;32260;52.008;4.752;2023-02-27T08:34:27;103235.09;;;3.40;65.39
46534;BME280;32260;52.008;4.752;2023-02-27T08:36:55;103240.81;;;3.49;65.25
46534;BME280;32260;52.008;4.752;2023-02-27T08:39:21;103244.53;;;3.54;65.82
46534;BME280;32260;52.008;4.752;2023-02-27T08:41:49;103245.81;;;3.63;65.26
46534;BME280;32260;52.008;4.752;2023-02-27T08:44:17;103253.28;;;3.73;64.88
46534;BME280;32260;52.008;4.752;2023-02-27T08:46:44;103252.06;;;3.84;64.76
46534;BME280;32260;52.008;4.752;2023-02-27T08:49:10;103247.09;;;3.91;64.64
46534;BME280;32260;52.008;4.752;2023-02-27T08:51:39;103253.66;;;4.00;64.32
46534;BME280;32260;52.008;4.752;2023-02-27T08:54:05;103248.75;;;4.08;64.64
46534;BME280;32260;52.008;4.752;2023-02-27T08:56:31;103249.09;;;4.16;64.25
46534;BME280;32260;52.008;4.752;2023-02-27T08:58:59;103250.41;;;4.26;64.46
46534;BME280;32260;52.008;4.752;2023-02-27T09:01:26;103249.06;;;4.34;64.03
46534;BME280;32260;52.008;4.752;2023-02-27T09:03:57;103248.50;;;4.41;63.98
46534;BME280;32260;52.008;4.752;2023-02-27T09:06:23;103245.38;;;4.50;63.28
46534;BME280;32260;52.008;4.752;2023-02-27T09:08:50;103252.81;;;4.60;63.45
46534;BME280;32260;52.008;4.752;2023-02-27T09:11:16;103252.25;;;4.67;63.03
46534;BME280;32260;52.008;4.752;2023-02-27T09:13:42;103257.91;;;4.77;63.12
46534;BME280;32260;52.008;4.752;2023-02-27T09:16:08;103253.06;;;4.86;62.78
46534;BME280;32260;52.008;4.752;2023-02-27T09:18:35;103264.00;;;4.97;62.72
46534;BME280;32260;52.008;4.752;2023-02-27T09:21:01;103263.56;;;5.07;62.55
46534;BME280;32260;52.008;4.752;2023-02-27T09:23:28;103261.31;;;5.16;62.20
46534;BME280;32260;52.008;4.752;2023-02-27T09:25:54;103265.28;;;5.28;61.82
46534;BME280;32260;52.008;4.752;2023-02-27T09:28:20;103269.22;;;5.39;61.70
46534;BME280;32260;52.008;4.752;2023-02-27T09:30:46;103268.72;;;5.48;60.92
46534;BME280;32260;52.008;4.752;2023-02-27T09:33:12;103264.84;;;5.61;61.25
46534;BME280;32260;52.008;4.752;2023-02-27T09:35:40;103267.97;;;5.73;60.28
46534;BME280;32260;52.008;4.752;2023-02-27T09:38:06;103269.28;;;5.85;60.55
46534;BME280;32260;52.008;4.752;2023-02-27T09:40:38;103264.50;;;5.97;60.00
46534;BME280;32260;52.008;4.752;2023-02-27T09:43:28;103263.19;;;6.08;59.81
46534;BME280;32260;52.008;4.752;2023-02-27T09:45:56;103264.25;;;6.13;59.26
46534;BME280;32260;52.008;4.752;2023-02-27T09:48:31;103257.69;;;6.26;58.62
46534;BME280;32260;52.008;4.752;2023-02-27T09:51:00;103268.59;;;6.36;59.20
46534;BME280;32260;52.008;4.752;2023-02-27T09:53:31;103262.91;;;6.49;59.06
46534;BME280;32260;52.008;4.752;2023-02-27T09:57:20;103260.09;;;6.69;59.12
46534;BME280;32260;52.008;4.752;2023-02-27T10:00:28;103264.78;;;6.77;58.87
46534;BME280;32260;52.008;4.752;2023-02-27T10:10:30;103261.94;;;7.23;58.16
46534;BME280;32260;52.008;4.752;2023-02-27T10:13:24;103261.38;;;7.33;55.86
46534;BME280;32260;52.008;4.752;2023-02-27T10:15:54;103256.13;;;7.35;56.47
46534;BME280;32260;52.008;4.752;2023-02-27T10:18:26;103262.53;;;7.41;52.66
46534;BME280;32260;52.008;4.752;2023-02-27T10:20:57;103263.81;;;7.54;52.75
46534;BME280;32260;52.008;4.752;2023-02-27T10:26:28;103252.19;;;7.76;53.36
46534;BME280;32260;52.008;4.752;2023-02-27T10:28:57;103258.44;;;7.80;51.64
46534;BME280;32260;52.008;4.752;2023-02-27T10:31:28;103255.13;;;7.87;53.36
46534;BME280;32260;52.008;4.752;2023-02-27T10:33:57;103257.53;;;7.80;52.98
46534;BME280;32260;52.008;4.752;2023-02-27T10:36:24;103255.81;;;7.80;54.27
46534;BME280;32260;52.008;4.752;2023-02-27T10:38:54;103247.16;;;7.86;52.21
46534;BME280;32260;52.008;4.752;2023-02-27T10:41:22;103255.38;;;7.95;53.79
46534;BME280;32260;52.008;4.752;2023-02-27T10:43:51;103252.91;;;8.01;51.00
46534;BME280;32260;52.008;4.752;2023-02-27T10:46:25;103249.56;;;8.08;51.32
46534;BME280;32260;52.008;4.752;2023-02-27T10:48:52;103247.13;;;8.15;51.50
46534;BME280;32260;52.008;4.752;2023-02-27T10:56:51;103237.09;;;8.35;48.72
46534;BME280;32260;52.008;4.752;2023-02-27T10:59:27;103237.56;;;8.49;48.74
46534;BME280;32260;52.008;4.752;2023-02-27T11:01:56;103235.28;;;8.63;48.36
46534;BME280;32260;52.008;4.752;2023-02-27T11:07:06;103227.84;;;8.83;47.82
46534;BME280;32260;52.008;4.752;2023-02-27T11:09:34;103224.34;;;8.82;49.66
46534;BME280;32260;52.008;4.752;2023-02-27T11:12:29;103217.59;;;8.95;48.55
46534;BME280;32260;52.008;4.752;2023-02-27T11:14:58;103215.75;;;8.91;45.90
46534;BME280;32260;52.008;4.752;2023-02-27T11:17:29;103223.03;;;9.01;48.26
46534;BME280;32260;52.008;4.752;2023-02-27T11:19:58;103219.53;;;9.02;47.81
46534;BME280;32260;52.008;4.752;2023-02-27T11:22:27;103207.69;;;9.23;46.73
46534;BME280;32260;52.008;4.752;2023-02-27T11:25:22;103203.25;;;9.62;46.98
46534;BME280;32260;52.008;4.752;2023-02-27T11:27:49;103199.78;;;9.64;44.85
46534;BME280;32260;52.008;4.752;2023-02-27T11:32:57;103193.03;;;9.37;42.70
46534;BME280;32260;52.008;4.752;2023-02-27T11:38:05;103180.13;;;9.53;44.60
46534;BME280;32260;52.008;4.752;2023-02-27T11:40:35;103185.09;;;9.79;43.55
46534;BME280;32260;52.008;4.752;2023-02-27T11:43:14;103176.88;;;10.09;44.74
46534;BME280;32260;52.008;4.752;2023-02-27T11:45:41;103181.41;;;10.15;44.12
46534;BME280;32260;52.008;4.752;2023-02-27T11:48:18;103177.16;;;10.23;45.13
46534;BME280;32260;52.008;4.752;2023-02-27T11:52:07;103178.59;;;10.06;42.24
46534;BME280;32260;52.008;4.752;2023-02-27T11:54:30;103172.69;;;9.76;43.50
46534;BME280;32260;52.008;4.752;2023-02-27T11:56:56;103180.00;;;9.47;43.74
46534;BME280;32260;52.008;4.752;2023-02-27T12:04:53;103182.06;;;8.84;44.98
46534;BME280;32260;52.008;4.752;2023-02-27T12:07:27;103177.66;;;8.84;45.66
46534;BME280;32260;52.008;4.752;2023-02-27T12:10:17;103164.19;;;9.10;44.46
46534;BME280;32260;52.008;4.752;2023-02-27T12:13:05;103167.41;;;9.35;43.89
46534;BME280;32260;52.008;4.752;2023-02-27T12:19:19;103154.06;;;9.71;42.49
46534;BME280;32260;52.008;4.752;2023-02-27T12:21:10;103155.38;;;9.94;42.85
46534;BME280;32260;52.008;4.752;2023-02-27T12:24:06;103148.78;;;10.19;42.91
46534;BME280;32260;52.008;4.752;2023-02-27T12:26:37;103156.88;;;10.25;41.83
46534;BME280;32260;52.008;4.752;2023-02-27T12:31:53;103149.97;;;10.33;39.86
46534;BME280;32260;52.008;4.752;2023-02-27T12:37:02;103139.28;;;10.30;41.04
46534;BME280;32260;52.008;4.752;2023-02-27T12:39:28;103136.59;;;10.27;39.28
46534;BME280;32260;52.008;4.752;2023-02-27T12:43:26;103136.00;;;10.41;40.39
46534;BME280;32260;52.008;4.752;2023-02-27T12:48:32;103125.81;;;10.65;39.52
46534;BME280;32260;52.008;4.752;2023-02-27T12:51:20;103128.69;;;10.81;38.54
46534;BME280;32260;52.008;4.752;2023-02-27T12:54:02;103125.22;;;10.85;37.45
46534;BME280;32260;52.008;4.752;2023-02-27T13:02:35;103123.00;;;11.14;37.35
46534;BME280;32260;52.008;4.752;2023-02-27T13:05:14;103116.09;;;11.27;38.80
46534;BME280;32260;52.008;4.752;2023-02-27T13:10:49;103137.31;;;11.24;39.29
46534;BME280;32260;52.008;4.752;2023-02-27T13:15:57;103132.19;;;10.77;39.87
46534;BME280;32260;52.008;4.752;2023-02-27T13:18:46;103129.34;;;10.67;39.73
46534;BME280;32260;52.008;4.752;2023-02-27T13:24:10;103123.00;;;10.56;40.17
46534;BME280;32260;52.008;4.752;2023-02-27T13:26:43;103118.22;;;10.36;39.28
46534;BME280;32260;52.008;4.752;2023-02-27T13:29:16;103124.19;;;10.25;40.49
46534;BME280;32260;52.008;4.752;2023-02-27T13:37:03;103121.13;;;9.57;41.86
46534;BME280;32260;52.008;4.752;2023-02-27T13:39:39;103121.88;;;9.51;42.62
46534;BME280;32260;52.008;4.752;2023-02-27T13:45:51;103115.88;;;10.04;42.02
46534;BME280;32260;52.008;4.752;2023-02-27T13:48:49;103118.34;;;10.43;41.58
46534;BME280;32260;52.008;4.752;2023-02-27T13:59:35;103111.94;;;10.83;40.67
46534;BME280;32260;52.008;4.752;2023-02-27T14:04:51;103116.38;;;10.86;41.60
46534;BME280;32260;52.008;4.752;2023-02-27T14:07:23;103122.56;;;10.85;41.81
46534;BME280;32260;52.008;4.752;2023-02-27T14:09:52;103118.84;;;10.74;42.09
46534;BME280;32260;52.008;4.752;2023-02-27T14:12:35;103122.25;;;10.66;41.84
46534;BME280;32260;52.008;4.752;2023-02-27T14:15:05;103121.94;;;10.46;42.90
46534;BME280;32260;52.008;4.752;2023-02-27T14:17:52;103125.06;;;10.25;43.00
46534;BME280;32260;52.008;4.752;2023-02-27T14:23:16;103123.97;;;10.12;43.37
46534;BME280;32260;52.008;4.752;2023-02-27T14:33:57;103118.03;;;10.78;43.78
46534;BME280;32260;52.008;4.752;2023-02-27T14:36:32;103118.84;;;10.74;43.18
46534;BME280;32260;52.008;4.752;2023-02-27T14:39:01;103124.91;;;10.65;43.36
46534;BME280;32260;52.008;4.752;2023-02-27T14:46:56;103113.72;;;10.32;44.71
46534;BME280;32260;52.008;4.752;2023-02-27T14:49:27;103110.97;;;10.26;44.68
46534;BME280;32260;52.008;4.752;2023-02-27T14:51:54;103111.66;;;10.14;44.47
46534;BME280;32260;52.008;4.752;2023-02-27T14:54:23;103118.47;;;10.03;44.86
46534;BME280;32260;52.008;4.752;2023-02-27T14:56:56;103115.56;;;9.89;45.31
46534;BME280;32260;52.008;4.752;2023-02-27T14:59:29;103109.19;;;9.78;45.69
46534;BME280;32260;52.008;4.752;2023-02-27T15:01:57;103099.50;;;9.80;45.63
46534;BME280;32260;52.008;4.752;2023-02-27T15:04:27;103106.16;;;10.05;46.13
46534;BME280;32260;52.008;4.752;2023-02-27T15:06:54;103095.94;;;10.25;45.24
46534;BME280;32260;52.008;4.752;2023-02-27T15:09:32;103092.84;;;10.49;44.95
46534;BME280;32260;52.008;4.752;2023-02-27T15:11:59;103097.50;;;10.64;44.48
46534;BME280;32260;52.008;4.752;2023-02-27T15:14:35;103093.06;;;10.63;43.61
46534;BME280;32260;52.008;4.752;2023-02-27T15:17:12;103096.34;;;10.47;43.97
46534;BME280;32260;52.008;4.752;2023-02-27T15:19:46;103092.53;;;10.32;44.20
46534;BME280;32260;52.008;4.752;2023-02-27T15:22:17;103092.94;;;10.07;44.51
46534;BME280;32260;52.008;4.752;2023-02-27T15:24:46;103092.66;;;9.91;45.00
46534;BME280;32260;52.008;4.752;2023-02-27T15:27:16;103108.31;;;9.79;45.96
46534;BME280;32260;52.008;4.752;2023-02-27T15:32:35;103104.84;;;9.83;46.51
46534;BME280;32260;52.008;4.752;2023-02-27T15:35:10;103106.66;;;9.84;46.52
46534;BME280;32260;52.008;4.752;2023-02-27T15:37:37;103101.34;;;9.84;45.96
46534;BME280;32260;52.008;4.752;2023-02-27T15:40:04;103103.16;;;9.85;44.70